This is the latest recevied weather packets stored in our database for station/object SP3WRO-13. If no packets are shown the sender has not sent any weather packets the latest 10 day(s).
| Time | Temp. | Humidity | Pressure | Rain* | Wind** | Luminosity | Snow |
|---|---|---|---|---|---|---|---|
| 1788442286 | 20.56° C | 68% | 1011.4 hPa | - | - | 326 W/m² | - |
| 1788441386 | 20° C | 71% | 1011.6 hPa | - | - | 200 W/m² | - |
| 1788439586 | 20° C | 69% | 1012.1 hPa | - | - | 137 W/m² | - |
| 1788438686 | 20.56° C | 65% | 1012 hPa | - | - | 198 W/m² | - |
| 1788434185 | 20° C | 66% | 1012.8 hPa | - | - | 212 W/m² | - |
| 1788433285 | 19.44° C | 65% | 1012.9 hPa | - | - | 153 W/m² | - |
| 1788432385 | 20° C | 63% | 1012.9 hPa | - | - | 170 W/m² | - |
| 1788431485 | 20.56° C | 69% | 1013 hPa | - | - | 210 W/m² | - |
| 1788430585 | 20.56° C | 67% | 1013.2 hPa | - | - | 192 W/m² | - |
| 1788429685 | 20.56° C | 68% | 1013.1 hPa | - | - | 205 W/m² | - |
| 1788428785 | 20° C | 68% | 1013.3 hPa | - | - | 247 W/m² | - |
| 1788427885 | 20.56° C | 66% | 1013.3 hPa | - | - | 267 W/m² | - |
| 1788426985 | 20.56° C | 68% | 1013.4 hPa | - | - | 377 W/m² | - |
| 1788426085 | 20.56° C | 65% | 1013.6 hPa | - | - | 382 W/m² | - |
| 1788424284 | 19.44° C | 69% | 1013.6 hPa | - | - | 294 W/m² | - |
| 1788423384 | 20° C | 69% | 1013.7 hPa | - | - | 339 W/m² | - |
| 1788422484 | 19.44° C | 72% | 1013.7 hPa | - | - | 280 W/m² | - |
| 1788420730 | 18.89° C | 75% | 1013.9 hPa | - | - | 256 W/m² | - |
| 1788420684 | 18.89° C | 75% | 1013.9 hPa | - | - | 256 W/m² | - |
| 1788419839 | 18.89° C | 73% | 1013.8 hPa | - | - | 348 W/m² | - |
| 1788419784 | 18.89° C | 73% | 1013.8 hPa | - | - | 348 W/m² | - |
| 1788418884 | 18.33° C | 74% | 1013.9 hPa | - | - | 219 W/m² | - |
| 1788417984 | 17.22° C | 84% | 1014 hPa | - | - | 269 W/m² | - |
| 1788417084 | 17.22° C | 79% | 1014 hPa | - | - | 233 W/m² | - |
| 1788416184 | 17.78° C | 77% | 1014.2 hPa | - | - | 207 W/m² | - |
* Rain since midnight (hover to see other rain measurements)
** Current wind speed in m/s (hover to see current wind gust speed)